Terminal Aerodrome Forecast
Issued by NWS

Home | Current Version | Previous Version | Text Only | Print | Product List | Glossary On
Versions: 1 2 3 4 5 6 7 8 9 10 11 12 13 14 15
114
FTUS43 KMQT 181138
TAFIWD
TAF
KIWD 181138Z 1812/1912 22008KT 5SM BR OVC007
     FM181600 21012KT P6SM BKN030
     FM181700 21012KT P6SM SCT040
     FM182300 21013KT P6SM -SHSN OVC050
     FM190100 23012KT 5SM -SHSN BR OVC015
     FM190600 25012G19KT 3SM BR OVC015
     FM190900 27012G20KT P6SM BKN010
     FM191100 27012G23KT P6SM BKN015=

USA.gov is the U.S. government's official web portal to all federal, state and local government web resources and services.